Time;durP1;ratioP1;P1;durP2;ratioP2;P2;SDS_P1;SDS_P2;PMS_P1;PMS_P2;Temp;Humidity;BMP_temperature;BMP_pressure;BME280_temperature;BME280_humidity;BME280_pressure;Samples;Min_cycle;Max_cycle;Signal;HPM_P1;HPM_P2
2021/09/05 00:00:55;;;;;;;13.52;11.43;;;;;;;;;;5062016;28;20049;-81
2021/09/05 00:03:22;;;;;;;15.35;12.23;;;;;;;;;;5062731;28;20442;-83
2021/09/05 00:05:48;;;;;;;14.68;11.90;;;;;;;;;;5063011;28;20049;-81
2021/09/05 00:08:15;;;;;;;15.13;12.65;;;;;;;;;;5062918;28;20072;-79
2021/09/05 00:10:42;;;;;;;16.92;14.15;;;;;;;;;;5061816;28;20088;-84
2021/09/05 00:13:10;;;;;;;17.08;13.82;;;;;;;;;;5061829;28;20496;-80
2021/09/05 00:15:36;;;;;;;18.17;13.13;;;;;;;;;;5061169;28;20087;-81
2021/09/05 00:18:03;;;;;;;20.60;13.75;;;;;;;;;;5057453;28;20045;-80
2021/09/05 00:20:30;;;;;;;16.75;13.00;;;;;;;;;;5056346;28;20087;-77
2021/09/05 00:22:57;;;;;;;16.05;13.15;;;;;;;;;;5059722;28;20041;-81
2021/09/05 00:25:23;;;;;;;16.20;12.80;;;;;;;;;;5060195;28;20041;-79
2021/09/05 00:27:50;;;;;;;16.30;12.20;;;;;;;;;;5058255;28;20092;-80
2021/09/05 00:30:18;;;;;;;15.25;12.02;;;;;;;;;;5057541;28;20116;-81
2021/09/05 00:32:45;;;;;;;15.55;11.57;;;;;;;;;;5067924;28;20087;-82
2021/09/05 00:35:12;;;;;;;17.05;13.07;;;;;;;;;;5060229;28;20049;-79
2021/09/05 00:37:39;;;;;;;17.58;12.45;;;;;;;;;;5058442;28;20541;-80
2021/09/05 00:40:07;;;;;;;15.60;12.50;;;;;;;;;;5056621;28;20077;-79
2021/09/05 00:42:34;;;;;;;14.90;11.73;;;;;;;;;;5057043;28;20059;-80
2021/09/05 00:45:01;;;;;;;14.88;11.63;;;;;;;;;;5056602;28;20083;-79
2021/09/05 00:47:29;;;;;;;15.65;11.45;;;;;;;;;;5057021;28;20117;-79
2021/09/05 00:49:56;;;;;;;14.98;11.23;;;;;;;;;;5057658;28;20056;-79
2021/09/05 00:52:25;;;;;;;14.98;11.75;;;;;;;;;;5063423;28;20130;-77
2021/09/05 00:54:53;;;;;;;15.80;11.00;;;;;;;;;;5062150;28;20087;-79
2021/09/05 00:57:20;;;;;;;15.30;12.63;;;;;;;;;;5059571;28;20084;-83
2021/09/05 00:59:48;;;;;;;14.48;11.20;;;;;;;;;;5058364;28;20073;-80
2021/09/05 01:02:15;;;;;;;13.30;9.70;;;;;;;;;;5058371;28;20567;-78
2021/09/05 01:04:44;;;;;;;14.63;11.13;;;;;;;;;;5058080;28;20059;-81
2021/09/05 01:07:11;;;;;;;14.65;11.15;;;;;;;;;;5057815;28;20049;-78
2021/09/05 01:09:38;;;;;;;14.50;11.85;;;;;;;;;;5057329;28;20084;-82
2021/09/05 01:12:05;;;;;;;20.33;16.27;;;;;;;;;;5059683;28;20541;-78
2021/09/05 01:14:32;;;;;;;17.42;14.38;;;;;;;;;;5059696;28;20087;-81
2021/09/05 01:16:59;;;;;;;22.33;18.70;;;;;;;;;;5060256;28;20057;-80
2021/09/05 01:19:26;;;;;;;15.25;12.63;;;;;;;;;;5060262;28;20041;-78
2021/09/05 01:21:55;;;;;;;17.67;12.02;;;;;;;;;;5059702;28;20076;-80
2021/09/05 01:24:22;;;;;;;16.42;12.90;;;;;;;;;;5060630;28;20080;-79
2021/09/05 01:26:51;;;;;;;13.85;11.43;;;;;;;;;;5059691;28;20045;-79
2021/09/05 01:29:20;;;;;;;13.70;11.38;;;;;;;;;;5060401;28;20049;-78
2021/09/05 01:31:49;;;;;;;14.73;12.07;;;;;;;;;;5059091;28;20078;-78
2021/09/05 01:34:18;;;;;;;17.77;12.68;;;;;;;;;;5060722;28;20080;-80
2021/09/05 01:36:46;;;;;;;14.38;11.35;;;;;;;;;;5059499;28;20045;-80
2021/09/05 01:39:14;;;;;;;14.50;11.48;;;;;;;;;;5059129;28;20056;-78
2021/09/05 01:41:41;;;;;;;20.83;14.63;;;;;;;;;;5059153;28;20466;-79
2021/09/05 01:44:10;;;;;;;16.35;12.77;;;;;;;;;;5061038;28;20072;-77
2021/09/05 01:46:39;;;;;;;14.53;11.50;;;;;;;;;;5066295;28;20053;-80
2021/09/05 01:49:06;;;;;;;14.43;10.70;;;;;;;;;;5062924;28;20056;-80
2021/09/05 01:51:34;;;;;;;16.67;11.95;;;;;;;;;;5062164;28;20049;-82
2021/09/05 01:54:02;;;;;;;14.73;11.15;;;;;;;;;;5062859;28;20130;-82
2021/09/05 01:56:29;;;;;;;17.00;11.85;;;;;;;;;;5062660;28;20101;-81
2021/09/05 01:58:56;;;;;;;17.23;12.80;;;;;;;;;;5061821;28;20072;-81
2021/09/05 02:01:23;;;;;;;97.57;62.90;;;;;;;;;;5062889;28;20084;-82
2021/09/05 02:03:51;;;;;;;71.55;50.92;;;;;;;;;;5062199;28;20085;-79
2021/09/05 02:06:18;;;;;;;56.97;41.85;;;;;;;;;;5061701;28;20072;-80
2021/09/05 02:08:45;;;;;;;22.50;17.73;;;;;;;;;;5060304;28;20092;-80
2021/09/05 02:11:12;;;;;;;17.52;13.25;;;;;;;;;;5060266;28;20081;-82
2021/09/05 02:13:38;;;;;;;15.27;12.43;;;;;;;;;;5061594;28;20049;-81
2021/09/05 02:16:06;;;;;;;19.30;14.00;;;;;;;;;;5061128;28;20482;-81
2021/09/05 02:18:32;;;;;;;15.95;12.90;;;;;;;;;;5062762;28;20081;-81
2021/09/05 02:21:00;;;;;;;15.35;12.65;;;;;;;;;;5069507;28;20414;-77
2021/09/05 02:23:27;;;;;;;14.18;12.15;;;;;;;;;;5079529;28;20036;-76
2021/09/05 02:25:54;;;;;;;17.00;12.50;;;;;;;;;;5079489;28;20143;-76
2021/09/05 02:28:20;;;;;;;15.20;11.93;;;;;;;;;;5079436;28;20037;-76
2021/09/05 02:30:47;;;;;;;15.13;12.88;;;;;;;;;;5078743;28;20061;-76
2021/09/05 02:33:14;;;;;;;14.85;12.38;;;;;;;;;;5079053;28;20061;-77
2021/09/05 02:35:40;;;;;;;18.17;13.43;;;;;;;;;;5066741;28;20048;-80
2021/09/05 02:38:08;;;;;;;17.10;12.93;;;;;;;;;;5058521;28;20076;-80
2021/09/05 02:40:35;;;;;;;15.27;12.52;;;;;;;;;;5057691;28;20076;-82
2021/09/05 02:43:02;;;;;;;16.65;12.85;;;;;;;;;;5058207;28;20083;-82
2021/09/05 02:45:28;;;;;;;16.60;12.40;;;;;;;;;;5058730;28;20114;-79
2021/09/05 02:47:55;;;;;;;17.23;13.68;;;;;;;;;;5059254;28;20083;-82
2021/09/05 02:50:22;;;;;;;15.35;12.07;;;;;;;;;;5057287;28;20094;-83
2021/09/05 02:52:49;;;;;;;15.35;12.45;;;;;;;;;;5058054;28;20116;-81
2021/09/05 02:55:17;;;;;;;16.95;12.55;;;;;;;;;;5057583;28;20056;-79
2021/09/05 02:57:43;;;;;;;18.45;12.77;;;;;;;;;;5056946;28;20502;-79
2021/09/05 03:00:11;;;;;;;14.65;11.98;;;;;;;;;;5057029;28;20083;-81
2021/09/05 03:02:38;;;;;;;15.45;12.13;;;;;;;;;;5056017;28;20095;-80
2021/09/05 03:05:05;;;;;;;14.95;12.18;;;;;;;;;;5055615;28;20140;-80
2021/09/05 03:07:32;;;;;;;16.38;13.43;;;;;;;;;;5055726;28;20076;-81
2021/09/05 03:09:58;;;;;;;17.20;13.38;;;;;;;;;;5055670;28;20105;-81
2021/09/05 03:12:26;;;;;;;16.13;13.07;;;;;;;;;;5057210;28;20454;-82
2021/09/05 03:14:53;;;;;;;15.55;12.95;;;;;;;;;;5039001;28;20133;-81
2021/09/05 03:17:20;;;;;;;15.23;12.70;;;;;;;;;;5039804;28;20096;-80
2021/09/05 03:19:46;;;;;;;15.65;12.95;;;;;;;;;;5040150;28;20073;-80
2021/09/05 03:22:13;;;;;;;15.00;12.50;;;;;;;;;;5038967;28;20081;-82
2021/09/05 03:24:40;;;;;;;16.38;12.70;;;;;;;;;;5054558;28;20049;-80
2021/09/05 03:27:06;;;;;;;18.63;14.43;;;;;;;;;;5046275;28;20046;-81
2021/09/05 03:29:35;;;;;;;17.60;14.80;;;;;;;;;;5040452;28;20049;-81
2021/09/05 03:32:01;;;;;;;16.92;13.43;;;;;;;;;;5038468;28;20061;-83
2021/09/05 03:34:28;;;;;;;15.82;11.65;;;;;;;;;;5038440;28;20525;-80
2021/09/05 03:36:54;;;;;;;15.27;12.43;;;;;;;;;;5037737;28;20083;-79
2021/09/05 03:39:21;;;;;;;16.38;13.68;;;;;;;;;;5038475;28;20042;-81
2021/09/05 03:41:48;;;;;;;15.77;12.50;;;;;;;;;;5037323;28;20114;-82
2021/09/05 03:44:15;;;;;;;15.20;11.30;;;;;;;;;;5037522;28;20137;-79
2021/09/05 03:46:43;;;;;;;14.73;11.98;;;;;;;;;;5036794;28;20137;-80
2021/09/05 03:49:09;;;;;;;13.80;10.88;;;;;;;;;;5038048;28;20505;-82
2021/09/05 03:51:36;;;;;;;14.38;11.10;;;;;;;;;;5036821;28;20490;-81
2021/09/05 03:54:03;;;;;;;14.20;10.95;;;;;;;;;;5037816;28;20049;-82
2021/09/05 03:56:29;;;;;;;13.80;10.50;;;;;;;;;;5037252;28;20506;-82
2021/09/05 03:58:58;;;;;;;13.20;10.38;;;;;;;;;;5037146;28;20092;-82
2021/09/05 04:01:24;;;;;;;13.68;11.23;;;;;;;;;;5036790;28;20050;-80
2021/09/05 04:03:52;;;;;;;12.98;10.80;;;;;;;;;;5054437;28;20085;-80
2021/09/05 04:06:19;;;;;;;13.45;10.68;;;;;;;;;;5061833;28;20057;-78
2021/09/05 04:08:49;;;;;;;13.30;10.18;;;;;;;;;;5073662;28;20037;-77
2021/09/05 04:11:16;;;;;;;12.85;10.15;;;;;;;;;;5073495;28;20036;-77
2021/09/05 04:13:42;;;;;;;13.95;10.48;;;;;;;;;;5074198;28;20055;-77
2021/09/05 04:16:09;;;;;;;13.05;10.02;;;;;;;;;;5074357;28;20052;-78
2021/09/05 04:18:36;;;;;;;13.73;10.55;;;;;;;;;;5073034;28;20068;-78
2021/09/05 04:21:04;;;;;;;14.20;10.38;;;;;;;;;;5071614;28;20052;-78
2021/09/05 04:23:30;;;;;;;14.32;10.73;;;;;;;;;;5071514;28;20079;-80
2021/09/05 04:25:57;;;;;;;13.18;10.82;;;;;;;;;;5073680;28;20045;-80
2021/09/05 04:28:24;;;;;;;16.65;11.85;;;;;;;;;;5069470;28;20060;-83
2021/09/05 04:30:50;;;;;;;14.43;11.00;;;;;;;;;;5071948;28;20045;-80
2021/09/05 04:33:17;;;;;;;13.18;10.35;;;;;;;;;;5071914;28;20056;-81
2021/09/05 04:35:44;;;;;;;13.57;10.02;;;;;;;;;;5069106;28;20045;-81
2021/09/05 04:38:12;;;;;;;13.98;10.05;;;;;;;;;;5068698;28;20045;-81
2021/09/05 04:40:38;;;;;;;12.90;9.77;;;;;;;;;;5062587;28;20072;-83
2021/09/05 04:43:05;;;;;;;11.32;9.05;;;;;;;;;;5060248;28;20056;-81
2021/09/05 04:45:32;;;;;;;12.07;9.57;;;;;;;;;;5062900;28;20498;-83
2021/09/05 04:47:58;;;;;;;12.65;9.38;;;;;;;;;;5066644;28;20053;-83
2021/09/05 04:50:25;;;;;;;12.82;9.70;;;;;;;;;;5063734;28;20072;-82
2021/09/05 04:52:52;;;;;;;13.88;10.65;;;;;;;;;;5064038;28;20087;-83
2021/09/05 04:55:20;;;;;;;14.77;9.30;;;;;;;;;;5063148;28;20454;-83
2021/09/05 04:57:47;;;;;;;11.60;8.68;;;;;;;;;;5062342;28;20068;-83
2021/09/05 05:00:14;;;;;;;11.73;9.27;;;;;;;;;;5062398;28;20045;-80
2021/09/05 05:02:41;;;;;;;12.00;8.85;;;;;;;;;;5063182;28;20103;-82
2021/09/05 05:05:09;;;;;;;10.90;7.97;;;;;;;;;;5063777;28;20049;-77
2021/09/05 05:07:35;;;;;;;10.38;7.97;;;;;;;;;;5064247;28;20095;-82
2021/09/05 05:10:02;;;;;;;11.95;9.25;;;;;;;;;;5065364;28;20083;-76
2021/09/05 05:12:30;;;;;;;14.00;9.65;;;;;;;;;;5068370;28;20040;-81
2021/09/05 05:14:57;;;;;;;10.90;8.73;;;;;;;;;;5064007;28;20080;-81
2021/09/05 05:17:23;;;;;;;11.70;8.95;;;;;;;;;;5063870;28;20040;-81
2021/09/05 05:19:50;;;;;;;11.10;8.70;;;;;;;;;;5062296;28;20076;-78
2021/09/05 05:22:17;;;;;;;13.30;8.70;;;;;;;;;;5062044;28;20107;-82
2021/09/05 05:24:44;;;;;;;12.07;8.85;;;;;;;;;;5062156;28;20052;-79
2021/09/05 05:27:11;;;;;;;9.88;7.55;;;;;;;;;;5062230;28;20041;-82
2021/09/05 05:29:39;;;;;;;10.70;8.10;;;;;;;;;;5061507;28;20120;-82
2021/09/05 05:32:06;;;;;;;12.80;8.15;;;;;;;;;;5060264;28;20131;-82
2021/09/05 05:34:33;;;;;;;11.93;8.75;;;;;;;;;;5061151;28;20136;-82
2021/09/05 05:37:03;;;;;;;10.55;7.93;;;;;;;;;;5060857;28;20041;-82
2021/09/05 05:39:30;;;;;;;11.30;8.23;;;;;;;;;;5060926;28;20045;-82
2021/09/05 05:41:57;;;;;;;11.77;9.05;;;;;;;;;;5059275;28;20076;-83
2021/09/05 05:44:23;;;;;;;11.27;8.98;;;;;;;;;;5061961;28;20084;-82
2021/09/05 05:46:51;;;;;;;12.77;9.93;;;;;;;;;;5063684;28;20124;-82
2021/09/05 05:49:18;;;;;;;16.65;12.00;;;;;;;;;;5061092;28;20076;-82
2021/09/05 05:51:44;;;;;;;18.25;14.35;;;;;;;;;;5060897;28;20494;-83
2021/09/05 05:54:14;;;;;;;20.55;15.90;;;;;;;;;;5061926;28;20108;-79
2021/09/05 05:56:42;;;;;;;21.75;17.58;;;;;;;;;;5060587;28;20068;-79
2021/09/05 05:59:09;;;;;;;18.48;14.95;;;;;;;;;;5062240;28;20056;-82
2021/09/05 06:01:36;;;;;;;17.13;13.60;;;;;;;;;;5061355;28;20056;-79
2021/09/05 06:04:04;;;;;;;16.63;11.82;;;;;;;;;;5061158;28;20103;-82
2021/09/05 06:06:32;;;;;;;15.90;11.60;;;;;;;;;;5061193;28;20861;-82
2021/09/05 06:08:59;;;;;;;14.80;10.10;;;;;;;;;;5061364;28;20052;-82
2021/09/05 06:11:25;;;;;;;14.95;11.35;;;;;;;;;;5059466;28;20438;-82
2021/09/05 06:13:52;;;;;;;13.80;9.93;;;;;;;;;;5059908;28;20511;-81
2021/09/05 06:16:18;;;;;;;13.98;9.70;;;;;;;;;;5060494;28;20084;-82
2021/09/05 06:18:46;;;;;;;12.75;8.93;;;;;;;;;;5064527;28;20057;-79
2021/09/05 06:21:14;;;;;;;13.18;9.45;;;;;;;;;;5068842;28;20057;-81
2021/09/05 06:23:41;;;;;;;13.93;9.00;;;;;;;;;;5070080;28;20045;-78
2021/09/05 06:26:08;;;;;;;12.05;9.00;;;;;;;;;;5069260;28;20072;-82
2021/09/05 06:28:34;;;;;;;11.57;8.63;;;;;;;;;;5066833;28;20087;-78
2021/09/05 06:31:01;;;;;;;11.15;7.97;;;;;;;;;;5061138;28;20088;-82
2021/09/05 06:33:28;;;;;;;13.15;8.45;;;;;;;;;;5059932;28;20045;-82
2021/09/05 06:35:55;;;;;;;11.70;7.95;;;;;;;;;;5060483;28;20072;-81
2021/09/05 06:38:23;;;;;;;12.13;8.15;;;;;;;;;;5060413;28;20084;-82
2021/09/05 06:40:49;;;;;;;10.15;7.85;;;;;;;;;;5059464;28;20080;-81
2021/09/05 06:43:17;;;;;;;12.23;9.10;;;;;;;;;;5060188;28;20072;-82
2021/09/05 06:45:43;;;;;;;11.18;8.25;;;;;;;;;;5060083;28;20063;-82
2021/09/05 06:48:10;;;;;;;13.35;10.23;;;;;;;;;;5060413;28;20072;-82
2021/09/05 06:50:37;;;;;;;15.18;10.82;;;;;;;;;;5067028;28;20076;-77
2021/09/05 06:53:04;;;;;;;13.88;9.40;;;;;;;;;;5076650;28;20081;-79
2021/09/05 06:55:32;;;;;;;16.08;12.55;;;;;;;;;;5075953;28;20045;-80
2021/09/05 06:57:59;;;;;;;15.32;10.98;;;;;;;;;;5072262;28;20056;-82
2021/09/05 07:00:25;;;;;;;18.17;13.30;;;;;;;;;;5060225;28;20045;-80
2021/09/05 07:02:52;;;;;;;14.10;10.57;;;;;;;;;;5059126;28;20052;-81
2021/09/05 07:05:19;;;;;;;12.98;9.77;;;;;;;;;;5059621;28;20045;-82
2021/09/05 07:07:45;;;;;;;12.88;9.70;;;;;;;;;;5058517;28;20087;-80
2021/09/05 07:10:13;;;;;;;13.02;10.10;;;;;;;;;;5058838;28;20088;-82
2021/09/05 07:12:42;;;;;;;17.90;11.50;;;;;;;;;;5059245;28;20049;-82
2021/09/05 07:15:10;;;;;;;14.77;10.95;;;;;;;;;;5059479;28;20045;-82
2021/09/05 07:17:36;;;;;;;14.30;10.27;;;;;;;;;;5059118;28;20099;-82
2021/09/05 07:20:04;;;;;;;12.55;9.80;;;;;;;;;;5058068;28;20091;-82
2021/09/05 07:22:30;;;;;;;13.30;9.90;;;;;;;;;;5058261;28;20069;-82
2021/09/05 07:24:57;;;;;;;13.10;9.65;;;;;;;;;;5058383;28;20084;-79
2021/09/05 07:27:25;;;;;;;15.43;11.07;;;;;;;;;;5057630;28;20132;-82
2021/09/05 07:29:54;;;;;;;12.63;9.73;;;;;;;;;;5057379;28;20048;-79
2021/09/05 07:32:20;;;;;;;13.30;9.57;;;;;;;;;;5057921;28;20065;-81
2021/09/05 07:34:47;;;;;;;13.63;10.20;;;;;;;;;;5058475;28;20057;-82
2021/09/05 07:37:14;;;;;;;12.35;9.63;;;;;;;;;;5057762;28;20127;-81
2021/09/05 07:39:41;;;;;;;13.40;10.43;;;;;;;;;;5059208;28;20098;-79
2021/09/05 07:42:08;;;;;;;15.02;10.50;;;;;;;;;;5061857;28;20075;-79
2021/09/05 07:44:34;;;;;;;13.98;9.68;;;;;;;;;;5071611;28;20073;-79
2021/09/05 07:47:03;;;;;;;15.07;9.82;;;;;;;;;;5067893;28;20069;-80
2021/09/05 07:49:29;;;;;;;14.52;10.20;;;;;;;;;;5060588;28;20509;-82
2021/09/05 07:52:05;;;;;;;13.60;10.43;;;;;;;;;;5044748;22;20070;-86
2021/09/05 07:54:39;;;;;;;13.60;10.45;;;;;;;;;;5014414;28;20053;-86
2021/09/05 07:57:06;;;;;;;14.20;10.25;;;;;;;;;;5014322;28;20046;-86
2021/09/05 07:59:36;;;;;;;12.93;9.63;;;;;;;;;;5013720;28;20390;-86
2021/09/05 08:02:46;;;;;;;14.63;10.73;;;;;;;;;;5014026;28;20054;-85
2021/09/05 08:05:19;;;;;;;12.45;9.85;;;;;;;;;;5013416;28;20471;-85
2021/09/05 08:07:46;;;;;;;13.32;9.10;;;;;;;;;;5013381;28;20507;-85
2021/09/05 08:10:19;;;;;;;12.98;9.68;;;;;;;;;;5015402;28;20113;-85
2021/09/05 08:12:55;;;;;;;13.25;8.82;;;;;;;;;;5013243;28;20054;-85
2021/09/05 08:15:22;;;;;;;12.13;9.45;;;;;;;;;;5013364;28;20046;-85
2021/09/05 08:17:59;;;;;;;12.32;8.80;;;;;;;;;;5013265;28;20061;-85
2021/09/05 08:23:13;;;;;;;12.82;9.60;;;;;;;;;;5068831;28;20064;-85
2021/09/05 08:25:39;;;;;;;13.27;8.95;;;;;;;;;;5072733;28;20049;-86
2021/09/05 08:28:13;;;;;;;16.42;12.63;;;;;;;;;;5073264;28;20045;-85
2021/09/05 08:30:49;;;;;;;13.43;10.70;;;;;;;;;;5072318;28;20044;-85
2021/09/05 08:36:02;;;;;;;12.65;9.90;;;;;;;;;;5014467;28;20058;-86
2021/09/05 08:38:48;;;;;;;13.07;9.55;;;;;;;;;;5062636;28;20049;-85
2021/09/05 08:41:15;;;;;;;12.13;9.30;;;;;;;;;;5071710;28;20052;-85
2021/09/05 08:43:46;;;;;;;11.93;8.73;;;;;;;;;;5072320;28;20052;-85
2021/09/05 08:46:26;;;;;;;15.38;10.10;;;;;;;;;;5072474;28;20048;-87
2021/09/05 08:49:02;;;;;;;12.98;9.05;;;;;;;;;;5073397;28;20055;-86
2021/09/05 08:51:50;;;;;;;12.80;9.00;;;;;;;;;;5072011;28;20124;-85
2021/09/05 08:54:25;;;;;;;13.85;10.13;;;;;;;;;;5061974;28;20056;-86
2021/09/05 08:57:08;;;;;;;14.43;12.05;;;;;;;;;;5083620;28;20056;-85
2021/09/05 08:59:43;;;;;;;11.77;9.10;;;;;;;;;;5069972;28;20052;-86
2021/09/05 09:02:16;;;;;;;11.68;8.68;;;;;;;;;;5072055;28;20086;-86
2021/09/05 09:04:55;;;;;;;11.77;8.45;;;;;;;;;;5071944;28;20044;-86
2021/09/05 09:07:43;;;;;;;12.15;8.15;;;;;;;;;;5071484;28;20409;-87
2021/09/05 09:10:50;;;;;;;11.40;8.02;;;;;;;;;;5076604;28;20044;-86
2021/09/05 09:13:48;;;;;;;10.85;6.90;;;;;;;;;;5092303;28;20045;-86
2021/09/05 09:48:07;;;;;;;11.30;7.50;;;;;;;;;;5054369;28;20049;-86
2021/09/05 09:51:10;;;;;;;10.27;7.38;;;;;;;;;;5054333;28;20080;-86
2021/09/05 09:53:48;;;;;;;10.20;7.22;;;;;;;;;;5055289;28;20501;-86
2021/09/05 09:57:00;;;;;;;10.77;7.63;;;;;;;;;;5055644;28;20354;-87
2021/09/05 09:59:38;;;;;;;9.88;6.80;;;;;;;;;;5047226;28;20057;-87
2021/09/05 10:02:17;;;;;;;;;;;;;;;;;;;;;
2021/09/05 10:05:13;;;;;;;11.15;7.82;;;;;;;;;;4973625;28;20061;-87
2021/09/05 10:07:58;;;;;;;10.07;6.70;;;;;;;;;;4974910;28;20047;-87
2021/09/05 10:10:25;;;;;;;9.27;7.18;;;;;;;;;;4961320;28;20097;-87
2021/09/05 10:13:06;;;;;;;11.73;8.07;;;;;;;;;;5010725;28;20054;-87
2021/09/05 10:15:51;;;;;;;12.18;8.35;;;;;;;;;;5061072;28;20103;-87
2021/09/05 10:18:18;;;;;;;11.25;8.57;;;;;;;;;;5056428;28;20415;-87
2021/09/05 10:20:53;;;;;;;9.90;7.40;;;;;;;;;;5056708;28;20045;-87
2021/09/05 10:23:46;;;;;;;9.85;7.57;;;;;;;;;;5057047;28;20053;-87
2021/09/05 10:26:20;;;;;;;10.77;7.82;;;;;;;;;;5055115;28;20045;-87
2021/09/05 10:29:07;;;;;;;11.60;9.25;;;;;;;;;;5054670;28;20053;-87
2021/09/05 10:31:44;;;;;;;11.30;8.10;;;;;;;;;;5055396;28;20049;-85
2021/09/05 10:34:41;;;;;;;11.13;8.18;;;;;;;;;;5060458;28;20052;-87
2021/09/05 10:37:46;;;;;;;11.00;8.23;;;;;;;;;;5057137;28;20145;-88
2021/09/05 10:40:50;;;;;;;11.15;8.18;;;;;;;;;;5031407;28;20049;-87
2021/09/05 10:43:46;;;;;;;12.50;8.77;;;;;;;;;;5054718;28;20052;-87
2021/09/05 10:49:07;;;;;;;10.82;7.85;;;;;;;;;;5039040;28;20060;-87
2021/09/05 12:42:51;;;;;;;7.40;5.93;;;;;;;;;;5030303;22;20063;-85
2021/09/05 12:45:23;;;;;;;7.82;6.00;;;;;;;;;;5052865;28;20068;-86
2021/09/05 12:47:50;;;;;;;7.85;6.18;;;;;;;;;;5054192;28;20054;-85
2021/09/05 12:50:33;;;;;;;7.82;5.85;;;;;;;;;;5048330;28;20054;-84
2021/09/05 12:53:31;;;;;;;6.95;5.72;;;;;;;;;;5037272;28;20100;-84
2021/09/05 12:58:44;;;;;;;8.10;5.97;;;;;;;;;;4973161;28;20225;-85
2021/09/05 13:01:41;;;;;;;9.70;6.35;;;;;;;;;;5014577;28;20417;-85
2021/09/05 13:04:08;;;;;;;8.40;5.78;;;;;;;;;;5044478;28;20100;-86
2021/09/05 13:09:49;;;;;;;8.10;6.00;;;;;;;;;;4954813;28;20056;-86
2021/09/05 13:12:33;;;;;;;;;;;;;;;;;;4978455;28;20057;-87
2021/09/05 13:15:02;;;;;;;6.88;5.68;;;;;;;;;;4972649;28;19944;-86
2021/09/05 13:17:36;;;;;;;7.35;5.75;;;;;;;;;;5017865;28;20054;-86
2021/09/05 13:20:11;;;;;;;7.03;5.30;;;;;;;;;;5020294;28;20408;-85
2021/09/05 13:22:40;;;;;;;7.10;5.68;;;;;;;;;;5019428;28;20046;-87
2021/09/05 13:25:15;;;;;;;7.95;5.90;;;;;;;;;;5018028;28;20045;-86
2021/09/05 13:30:31;;;;;;;7.93;5.97;;;;;;;;;;4995796;28;20050;-87
2021/09/05 13:36:15;;;;;;;7.55;5.90;;;;;;;;;;5007749;28;20054;-87
2021/09/05 13:38:55;;;;;;;6.72;5.35;;;;;;;;;;5018081;28;20473;-88
2021/09/05 13:44:34;;;;;;;6.43;5.38;;;;;;;;;;4918696;29;20052;-87
2021/09/05 13:47:05;;;;;;;7.57;5.43;;;;;;;;;;4918064;29;20064;-87
2021/09/05 13:49:39;;;;;;;6.78;5.40;;;;;;;;;;4922209;29;20113;-86
2021/09/05 13:52:07;;;;;;;5.63;4.78;;;;;;;;;;5013611;23;20052;-83
2021/09/05 13:54:33;;;;;;;7.00;5.40;;;;;;;;;;5041260;28;20052;-83
2021/09/05 13:57:00;;;;;;;6.93;4.90;;;;;;;;;;5044409;28;20081;-83
2021/09/05 13:59:28;;;;;;;6.47;5.50;;;;;;;;;;5040598;28;20089;-83
2021/09/05 14:01:55;;;;;;;6.45;5.25;;;;;;;;;;5040092;28;20148;-83
2021/09/05 14:04:21;;;;;;;6.10;5.05;;;;;;;;;;5040535;28;20081;-83
2021/09/05 14:06:48;;;;;;;5.78;4.80;;;;;;;;;;5040709;28;20077;-83
2021/09/05 14:09:15;;;;;;;5.88;5.00;;;;;;;;;;5039685;28;20073;-83
2021/09/05 14:11:41;;;;;;;8.13;5.03;;;;;;;;;;5039639;28;20732;-83
2021/09/05 14:14:08;;;;;;;7.45;4.63;;;;;;;;;;5040459;28;20478;-83
2021/09/05 14:16:36;;;;;;;6.07;4.95;;;;;;;;;;5040308;28;20072;-83
2021/09/05 14:19:02;;;;;;;6.50;5.03;;;;;;;;;;5040615;28;20088;-83
2021/09/05 14:21:29;;;;;;;5.95;4.88;;;;;;;;;;5040963;28;20073;-83
2021/09/05 14:23:56;;;;;;;5.97;4.93;;;;;;;;;;5050334;28;20049;-83
2021/09/05 14:26:23;;;;;;;6.15;4.70;;;;;;;;;;5039033;28;20118;-83
2021/09/05 14:28:53;;;;;;;7.35;5.20;;;;;;;;;;5039324;28;20085;-83
2021/09/05 14:31:25;;;;;;;6.32;4.57;;;;;;;;;;5039631;28;20085;-83
2021/09/05 14:48:05;;;;;;;5.85;4.30;;;;;;;;;;5039732;28;20118;-81
2021/09/05 14:50:59;;;;;;;6.40;4.85;;;;;;;;;;5039273;28;20049;-81
2021/09/05 14:56:10;;;;;;;5.07;4.20;;;;;;;;;;5040480;28;20104;-82
2021/09/05 14:58:38;;;;;;;5.53;4.30;;;;;;;;;;5046876;28;20061;-84
2021/09/05 15:01:08;;;;;;;5.93;4.80;;;;;;;;;;5045308;28;20042;-82
2021/09/05 15:03:43;;;;;;;6.25;5.03;;;;;;;;;;5046725;28;20045;-82
2021/09/05 15:11:41;;;;;;;5.88;4.65;;;;;;;;;;5046587;28;20052;-82
2021/09/05 15:14:08;;;;;;;6.20;4.60;;;;;;;;;;5048119;28;20049;-82
2021/09/05 15:16:36;;;;;;;6.22;4.47;;;;;;;;;;5047429;28;20073;-82
2021/09/05 15:19:02;;;;;;;6.05;4.60;;;;;;;;;;5047109;28;20079;-82
2021/09/05 15:21:36;;;;;;;7.63;4.60;;;;;;;;;;5046724;28;20050;-82
2021/09/05 15:24:03;;;;;;;6.00;5.03;;;;;;;;;;5046307;28;20053;-82
2021/09/05 15:26:31;;;;;;;6.15;4.32;;;;;;;;;;5046234;28;20088;-83
2021/09/05 15:29:07;;;;;;;6.40;4.13;;;;;;;;;;5045586;28;20589;-83
2021/09/05 15:31:42;;;;;;;7.15;4.90;;;;;;;;;;5045218;28;20056;-83
2021/09/05 15:34:32;;;;;;;5.95;5.20;;;;;;;;;;5046905;28;20441;-83
2021/09/05 15:53:48;;;;;;;6.38;4.50;;;;;;;;;;4948111;29;20039;-83
2021/09/05 15:56:15;;;;;;;5.68;4.72;;;;;;;;;;5015980;28;20409;-83
2021/09/05 15:58:43;;;;;;;5.72;5.00;;;;;;;;;;5025805;28;20081;-83
2021/09/05 16:01:19;;;;;;;7.03;4.90;;;;;;;;;;5025023;28;20077;-83
2021/09/05 16:03:56;;;;;;;6.97;4.18;;;;;;;;;;5026414;28;20295;-82
2021/09/05 16:06:42;;;;;;;5.47;4.20;;;;;;;;;;5026460;28;20117;-82
2021/09/05 16:17:26;;;;;;;5.68;4.43;;;;;;;;;;5025343;28;20490;-83
2021/09/05 16:19:53;;;;;;;7.43;4.75;;;;;;;;;;5026048;28;20046;-83
2021/09/05 16:22:19;;;;;;;6.68;5.05;;;;;;;;;;5026613;28;20069;-82
2021/09/05 16:24:47;;;;;;;6.32;4.78;;;;;;;;;;5025865;28;20046;-82
2021/09/05 16:27:20;;;;;;;6.13;4.63;;;;;;;;;;5026032;28;20065;-83
2021/09/05 16:29:49;;;;;;;6.93;4.60;;;;;;;;;;5024920;28;20050;-83
2021/09/05 16:32:20;;;;;;;6.10;5.18;;;;;;;;;;5025413;28;20483;-82
2021/09/05 16:34:55;;;;;;;5.45;4.50;;;;;;;;;;5026208;28;20116;-83
2021/09/05 16:37:48;;;;;;;6.80;4.65;;;;;;;;;;5032135;28;20042;-83
2021/09/05 16:40:27;;;;;;;5.93;4.75;;;;;;;;;;5038969;28;20030;-83
2021/09/05 16:42:54;;;;;;;6.78;4.43;;;;;;;;;;5044019;28;20054;-83
2021/09/05 16:45:21;;;;;;;9.30;5.32;;;;;;;;;;5043892;28;20042;-83
2021/09/05 16:47:48;;;;;;;6.60;5.43;;;;;;;;;;5035933;28;20076;-82
2021/09/05 16:50:15;;;;;;;7.00;5.10;;;;;;;;;;5027325;28;20066;-83
2021/09/05 16:52:43;;;;;;;6.65;5.07;;;;;;;;;;5044290;28;20072;-83
2021/09/05 16:55:11;;;;;;;7.68;5.22;;;;;;;;;;5049725;28;20109;-83
2021/09/05 16:57:40;;;;;;;7.80;5.45;;;;;;;;;;5048412;28;20096;-83
2021/09/05 17:00:09;;;;;;;6.25;4.72;;;;;;;;;;5046859;28;20530;-83
2021/09/05 17:02:36;;;;;;;7.03;4.60;;;;;;;;;;5047034;28;20084;-83
2021/09/05 17:05:03;;;;;;;6.45;5.38;;;;;;;;;;5049878;28;20056;-83
2021/09/05 17:07:30;;;;;;;7.85;6.55;;;;;;;;;;5051306;28;20049;-83
2021/09/05 17:09:57;;;;;;;6.85;5.30;;;;;;;;;;5052149;28;20072;-84
2021/09/05 17:12:24;;;;;;;7.88;6.65;;;;;;;;;;5052211;28;20056;-82
2021/09/05 17:14:52;;;;;;;8.70;5.75;;;;;;;;;;5051893;28;20418;-82
2021/09/05 17:17:19;;;;;;;8.57;5.13;;;;;;;;;;5051953;28;20060;-82
2021/09/05 17:19:45;;;;;;;19.15;17.27;;;;;;;;;;5052398;28;20418;-83
2021/09/05 17:22:12;;;;;;;26.13;23.63;;;;;;;;;;5052085;28;20049;-83
2021/09/05 17:24:39;;;;;;;8.95;8.02;;;;;;;;;;5052084;28;20041;-83
2021/09/05 17:27:06;;;;;;;7.70;5.35;;;;;;;;;;5052321;28;20514;-83
2021/09/05 17:29:33;;;;;;;7.82;5.38;;;;;;;;;;5052106;28;20068;-83
2021/09/05 17:32:03;;;;;;;6.95;5.43;;;;;;;;;;5052003;28;20084;-84
2021/09/05 17:34:29;;;;;;;11.52;10.43;;;;;;;;;;5052031;28;20057;-84
2021/09/05 17:36:56;;;;;;;14.48;12.75;;;;;;;;;;5052032;28;20406;-84
2021/09/05 17:39:23;;;;;;;18.17;16.38;;;;;;;;;;5052054;28;20081;-84
2021/09/05 17:41:50;;;;;;;14.88;13.38;;;;;;;;;;5052601;28;20053;-83
2021/09/05 17:44:17;;;;;;;14.75;13.25;;;;;;;;;;5051624;28;20076;-82
2021/09/05 17:46:43;;;;;;;15.30;13.70;;;;;;;;;;5052142;28;20052;-82
2021/09/05 17:49:12;;;;;;;12.88;11.57;;;;;;;;;;5051981;28;20099;-82
2021/09/05 17:51:39;;;;;;;8.82;7.82;;;;;;;;;;5049721;28;20092;-82
2021/09/05 17:54:06;;;;;;;11.68;10.13;;;;;;;;;;5048576;28;20068;-83
2021/09/05 17:56:33;;;;;;;21.20;19.00;;;;;;;;;;5049131;28;20046;-83
2021/09/05 17:59:00;;;;;;;10.35;7.75;;;;;;;;;;5048634;28;20045;-83
2021/09/05 18:01:27;;;;;;;9.35;7.47;;;;;;;;;;5048106;28;20053;-83
2021/09/05 18:03:54;;;;;;;7.40;5.63;;;;;;;;;;5047972;28;20045;-83
2021/09/05 18:06:22;;;;;;;8.00;6.22;;;;;;;;;;5048972;28;20045;-83
2021/09/05 18:08:48;;;;;;;7.20;5.43;;;;;;;;;;5049637;28;20049;-82
2021/09/05 18:11:15;;;;;;;6.78;5.32;;;;;;;;;;5047987;28;20045;-83
2021/09/05 18:13:42;;;;;;;7.57;5.85;;;;;;;;;;5049170;28;20060;-83
2021/09/05 18:16:09;;;;;;;9.52;5.57;;;;;;;;;;5048858;28;20049;-83
2021/09/05 18:18:35;;;;;;;6.70;5.15;;;;;;;;;;5045427;28;20518;-83